Terminal Aerodrome Forecast
Issued by NWS Central Illinois

Home | Current Version | Previous Version | Text Only | Print | Product List | Glossary On
Versions: 1 2 3 4 5 6 7 8 9 10 11 12 13 14 15 16 17 18 19 20 21 22 23
000
FTUS43 KILX 291754 AAA
TAFSPI
TAF AMD
KSPI 291754Z 2918/3018 28010G20KT P6SM SCT100
     FM292000 28012G20KT P6SM VCTS FEW060CB SCT150
     FM300000 27006KT P6SM FEW250
     FM301600 26010KT P6SM FEW250=

USA.gov is the U.S. government's official web portal to all federal, state and local government web resources and services.